Time;durP1;ratioP1;P1;durP2;ratioP2;P2;SDS_P1;SDS_P2;PMS_P1;PMS_P2;Temp;Humidity;BMP_temperature;BMP_pressure;BME280_temperature;BME280_humidity;BME280_pressure;Samples;Min_cycle;Max_cycle;Signal;HPM_P1;HPM_P2
2021/05/09 00:00:36;;;;;;;7.43;3.60;;;;;;;;;;5036160;28;20189;-69
2021/05/09 00:03:01;;;;;;;10.32;3.80;;;;;;;;;;5029255;28;20210;-69
2021/05/09 00:05:27;;;;;;;6.90;3.70;;;;;;;;;;5038445;28;20181;-68
2021/05/09 00:07:52;;;;;;;7.95;2.88;;;;;;;;;;5043492;28;20198;-68
2021/05/09 00:10:19;;;;;;;5.78;3.67;;;;;;;;;;5044145;28;20190;-69
2021/05/09 00:12:44;;;;;;;5.85;3.80;;;;;;;;;;5034801;28;20210;-68
2021/05/09 00:15:12;;;;;;;7.70;3.63;;;;;;;;;;5042313;28;20212;-68
2021/05/09 00:17:38;;;;;;;5.15;3.42;;;;;;;;;;5030737;28;20186;-69
2021/05/09 00:20:09;;;;;;;5.97;3.60;;;;;;;;;;5038964;28;20193;-68
2021/05/09 00:22:34;;;;;;;7.22;3.50;;;;;;;;;;5039398;28;20196;-68
2021/05/09 00:25:00;;;;;;;8.70;4.25;;;;;;;;;;5031549;28;20244;-68
2021/05/09 00:27:26;;;;;;;6.47;3.63;;;;;;;;;;5036918;28;20185;-68
2021/05/09 00:29:52;;;;;;;6.82;3.50;;;;;;;;;;5026712;28;20217;-68
2021/05/09 00:32:18;;;;;;;6.18;3.78;;;;;;;;;;5033381;28;20182;-69
2021/05/09 00:34:43;;;;;;;8.70;3.67;;;;;;;;;;5030908;28;20214;-68
2021/05/09 00:37:08;;;;;;;5.43;3.45;;;;;;;;;;5034682;28;20555;-69
2021/05/09 00:39:34;;;;;;;9.60;3.88;;;;;;;;;;5036307;28;20560;-69
2021/05/09 00:42:04;;;;;;;5.78;3.45;;;;;;;;;;5037270;28;20329;-69
2021/05/09 00:44:29;;;;;;;6.30;3.70;;;;;;;;;;5029638;28;20181;-68
2021/05/09 00:46:55;;;;;;;7.80;3.40;;;;;;;;;;5039412;28;20178;-69
2021/05/09 00:49:20;;;;;;;6.65;3.60;;;;;;;;;;5030022;28;20194;-69
2021/05/09 00:51:47;;;;;;;8.27;4.05;;;;;;;;;;5043376;28;20609;-69
2021/05/09 00:54:16;;;;;;;5.90;3.30;;;;;;;;;;5040775;28;20220;-69
2021/05/09 00:56:41;;;;;;;5.28;3.70;;;;;;;;;;5026025;28;20583;-68
2021/05/09 00:59:08;;;;;;;7.15;4.13;;;;;;;;;;5045083;28;20251;-69
2021/05/09 01:01:36;;;;;;;5.57;3.65;;;;;;;;;;5030321;28;20323;-69
2021/05/09 01:04:02;;;;;;;9.05;3.90;;;;;;;;;;5042015;28;20181;-69
2021/05/09 01:06:28;;;;;;;6.10;3.58;;;;;;;;;;5029673;28;20190;-69
2021/05/09 01:08:53;;;;;;;9.68;3.90;;;;;;;;;;5045332;28;20193;-69
2021/05/09 01:11:19;;;;;;;8.23;4.10;;;;;;;;;;5033498;28;20189;-69
2021/05/09 01:13:45;;;;;;;9.15;3.95;;;;;;;;;;5041270;28;20193;-68
2021/05/09 01:16:10;;;;;;;5.05;4.40;;;;;;;;;;5032196;28;20209;-69
2021/05/09 01:18:36;;;;;;;7.80;4.30;;;;;;;;;;5037112;28;20303;-68
2021/05/09 01:21:01;;;;;;;7.38;4.00;;;;;;;;;;5030645;28;20208;-68
2021/05/09 01:23:27;;;;;;;7.93;4.00;;;;;;;;;;5036705;28;20642;-69
2021/05/09 01:25:52;;;;;;;5.10;3.95;;;;;;;;;;5032625;28;20646;-68
2021/05/09 01:28:17;;;;;;;7.30;4.38;;;;;;;;;;5044294;28;20193;-68
2021/05/09 01:30:43;;;;;;;6.63;4.30;;;;;;;;;;5036508;28;20177;-68
2021/05/09 01:33:08;;;;;;;8.35;4.07;;;;;;;;;;5034672;28;20190;-67
2021/05/09 01:35:34;;;;;;;6.13;4.03;;;;;;;;;;5038783;28;20205;-68
2021/05/09 01:38:00;;;;;;;7.40;4.10;;;;;;;;;;5034669;28;20224;-68
2021/05/09 01:40:26;;;;;;;8.23;4.05;;;;;;;;;;5040593;28;20710;-68
2021/05/09 01:42:51;;;;;;;6.22;4.50;;;;;;;;;;5040096;28;20222;-68
2021/05/09 01:45:17;;;;;;;6.32;4.13;;;;;;;;;;5040642;28;20533;-68
2021/05/09 01:47:42;;;;;;;6.68;4.47;;;;;;;;;;5039317;28;20192;-68
2021/05/09 01:50:15;;;;;;;7.38;4.32;;;;;;;;;;5038047;28;20672;-68
2021/05/09 01:52:41;;;;;;;5.88;3.83;;;;;;;;;;5032103;28;20193;-68
2021/05/09 01:55:09;;;;;;;9.40;4.68;;;;;;;;;;5041047;28;20685;-68
2021/05/09 01:57:35;;;;;;;8.30;3.83;;;;;;;;;;5029259;28;20730;-68
2021/05/09 02:00:00;;;;;;;7.38;4.15;;;;;;;;;;5036168;28;20178;-68
2021/05/09 02:02:26;;;;;;;7.65;4.03;;;;;;;;;;5040207;28;20201;-68
2021/05/09 02:04:52;;;;;;;5.72;3.58;;;;;;;;;;5038764;28;20193;-69
2021/05/09 02:07:18;;;;;;;7.07;4.13;;;;;;;;;;5044799;28;20263;-69
2021/05/09 02:09:44;;;;;;;6.63;4.25;;;;;;;;;;5037960;28;20193;-69
2021/05/09 02:12:09;;;;;;;10.13;3.90;;;;;;;;;;5038140;28;20254;-69
2021/05/09 02:14:35;;;;;;;10.40;4.53;;;;;;;;;;5037248;28;20213;-69
2021/05/09 02:17:00;;;;;;;8.52;4.43;;;;;;;;;;5038665;28;20193;-69
2021/05/09 02:19:25;;;;;;;8.55;4.25;;;;;;;;;;5036263;28;20217;-69
2021/05/09 02:21:51;;;;;;;11.82;6.22;;;;;;;;;;5045538;28;20174;-69
2021/05/09 02:24:16;;;;;;;6.50;3.80;;;;;;;;;;5039274;28;20185;-68
2021/05/09 02:26:41;;;;;;;6.72;3.83;;;;;;;;;;5045262;28;20178;-69
2021/05/09 02:29:07;;;;;;;7.75;4.45;;;;;;;;;;5039936;28;20209;-68
2021/05/09 02:31:32;;;;;;;6.43;3.88;;;;;;;;;;5039268;28;20172;-68
2021/05/09 02:33:58;;;;;;;7.72;4.47;;;;;;;;;;5048983;28;20216;-68
2021/05/09 02:36:23;;;;;;;6.72;4.22;;;;;;;;;;5032964;28;20220;-68
2021/05/09 02:38:48;;;;;;;7.75;4.07;;;;;;;;;;5047885;28;20528;-67
2021/05/09 02:41:14;;;;;;;12.20;5.20;;;;;;;;;;5032916;28;20243;-67
2021/05/09 02:43:39;;;;;;;8.32;4.25;;;;;;;;;;5046527;28;20198;-67
2021/05/09 02:46:04;;;;;;;7.22;4.85;;;;;;;;;;5036231;28;20523;-68
2021/05/09 02:48:30;;;;;;;8.73;5.03;;;;;;;;;;5048964;28;20181;-68
2021/05/09 02:50:56;;;;;;;7.28;4.80;;;;;;;;;;5034567;28;20198;-68
2021/05/09 02:53:21;;;;;;;13.15;5.50;;;;;;;;;;5042597;28;20189;-68
2021/05/09 02:55:47;;;;;;;9.73;5.20;;;;;;;;;;5034567;28;20213;-68
2021/05/09 02:58:12;;;;;;;10.82;5.45;;;;;;;;;;5046382;28;20185;-68
2021/05/09 03:00:37;;;;;;;9.32;5.13;;;;;;;;;;5039992;28;20182;-68
2021/05/09 03:03:03;;;;;;;10.07;4.93;;;;;;;;;;5037664;28;20274;-68
2021/05/09 03:05:28;;;;;;;9.30;5.45;;;;;;;;;;5041621;28;20284;-68
2021/05/09 03:07:53;;;;;;;6.70;4.55;;;;;;;;;;5034067;28;20194;-69
2021/05/09 03:10:19;;;;;;;7.63;4.57;;;;;;;;;;5044134;28;20169;-68
2021/05/09 03:12:44;;;;;;;12.55;5.28;;;;;;;;;;5034047;28;20181;-68
2021/05/09 03:15:10;;;;;;;10.65;5.07;;;;;;;;;;5043696;28;20216;-68
2021/05/09 03:17:35;;;;;;;11.07;5.05;;;;;;;;;;5040079;28;20198;-68
2021/05/09 03:20:01;;;;;;;9.52;4.88;;;;;;;;;;5044830;28;20227;-68
2021/05/09 03:22:27;;;;;;;7.80;4.85;;;;;;;;;;5042473;28;20219;-68
2021/05/09 03:24:52;;;;;;;8.80;4.82;;;;;;;;;;5042065;28;20186;-68
2021/05/09 03:27:18;;;;;;;9.73;4.70;;;;;;;;;;5041033;28;20181;-68
2021/05/09 03:29:43;;;;;;;6.75;4.50;;;;;;;;;;5038784;28;20189;-68
2021/05/09 03:32:08;;;;;;;6.47;4.90;;;;;;;;;;5049105;28;20193;-68
2021/05/09 03:34:34;;;;;;;9.43;5.20;;;;;;;;;;5032664;28;20213;-68
2021/05/09 03:36:59;;;;;;;9.23;5.35;;;;;;;;;;5043167;28;20201;-69
2021/05/09 03:39:24;;;;;;;7.85;5.30;;;;;;;;;;5036044;28;20608;-69
2021/05/09 03:41:50;;;;;;;8.27;5.22;;;;;;;;;;5037274;28;20225;-69
2021/05/09 03:44:15;;;;;;;12.27;5.53;;;;;;;;;;5038075;28;20205;-69
2021/05/09 03:46:40;;;;;;;9.13;5.60;;;;;;;;;;5045798;28;20189;-69
2021/05/09 03:49:06;;;;;;;9.65;5.55;;;;;;;;;;5031190;28;20181;-69
2021/05/09 03:51:31;;;;;;;11.38;5.88;;;;;;;;;;5042333;28;20243;-69
2021/05/09 03:53:56;;;;;;;12.40;5.25;;;;;;;;;;5033915;28;20212;-69
2021/05/09 03:56:22;;;;;;;11.90;5.55;;;;;;;;;;5042033;28;20209;-69
2021/05/09 03:58:47;;;;;;;11.75;5.75;;;;;;;;;;5041602;28;20673;-68
2021/05/09 04:01:13;;;;;;;11.57;6.22;;;;;;;;;;5029488;28;20725;-68
2021/05/09 04:03:38;;;;;;;12.00;6.65;;;;;;;;;;5040680;28;20224;-68
2021/05/09 04:06:04;;;;;;;16.33;6.20;;;;;;;;;;5033606;28;20541;-68
2021/05/09 04:08:29;;;;;;;12.75;6.55;;;;;;;;;;5041875;28;20189;-68
2021/05/09 04:10:56;;;;;;;11.05;6.45;;;;;;;;;;5028743;28;20190;-69
2021/05/09 04:13:22;;;;;;;11.52;6.57;;;;;;;;;;5041396;28;20268;-69
2021/05/09 04:15:47;;;;;;;11.65;6.97;;;;;;;;;;5033782;28;20220;-69
2021/05/09 04:18:13;;;;;;;11.90;6.50;;;;;;;;;;5042134;28;20186;-69
2021/05/09 04:20:39;;;;;;;13.20;6.13;;;;;;;;;;5031407;28;20224;-69
2021/05/09 04:23:15;;;;;;;11.05;6.63;;;;;;;;;;5037395;28;20279;-68
2021/05/09 04:25:46;;;;;;;11.05;5.88;;;;;;;;;;5030059;28;20189;-68
2021/05/09 04:28:11;;;;;;;11.15;6.13;;;;;;;;;;5043321;28;20196;-68
2021/05/09 04:30:37;;;;;;;8.93;5.45;;;;;;;;;;5027522;28;20618;-68
2021/05/09 04:33:06;;;;;;;10.85;6.35;;;;;;;;;;5042009;28;20273;-68
2021/05/09 04:35:33;;;;;;;9.80;6.10;;;;;;;;;;5046755;28;20232;-68
2021/05/09 04:37:59;;;;;;;14.25;6.13;;;;;;;;;;5036103;28;20181;-68
2021/05/09 04:40:27;;;;;;;10.80;5.93;;;;;;;;;;5038718;28;20204;-68
2021/05/09 04:42:52;;;;;;;9.75;5.57;;;;;;;;;;5035550;28;20224;-68
2021/05/09 04:45:17;;;;;;;9.23;5.43;;;;;;;;;;5035679;28;20172;-68
2021/05/09 04:47:43;;;;;;;8.23;5.30;;;;;;;;;;5033816;28;20235;-68
2021/05/09 04:50:10;;;;;;;6.68;5.32;;;;;;;;;;5041253;28;20182;-69
2021/05/09 04:52:35;;;;;;;8.82;5.00;;;;;;;;;;5040077;28;20194;-69
2021/05/09 04:55:01;;;;;;;9.82;5.63;;;;;;;;;;5036886;28;20202;-68
2021/05/09 04:57:26;;;;;;;9.35;4.68;;;;;;;;;;5029041;28;20711;-68
2021/05/09 04:59:52;;;;;;;7.47;4.60;;;;;;;;;;5045527;28;20172;-69
2021/05/09 05:02:17;;;;;;;7.65;4.80;;;;;;;;;;5034120;28;20316;-68
2021/05/09 05:04:43;;;;;;;7.18;5.10;;;;;;;;;;5039660;28;20178;-68
2021/05/09 05:07:08;;;;;;;9.32;4.82;;;;;;;;;;5037595;28;20200;-68
2021/05/09 05:09:33;;;;;;;11.20;4.57;;;;;;;;;;5031959;28;20193;-68
2021/05/09 05:11:59;;;;;;;12.35;4.57;;;;;;;;;;5036428;28;20181;-68
2021/05/09 05:14:24;;;;;;;6.57;4.03;;;;;;;;;;5029276;28;20223;-68
2021/05/09 05:16:49;;;;;;;6.85;4.30;;;;;;;;;;5042354;28;20335;-68
2021/05/09 05:19:15;;;;;;;5.75;4.25;;;;;;;;;;5032722;28;20185;-68
2021/05/09 05:21:40;;;;;;;8.05;3.70;;;;;;;;;;5043269;28;20193;-68
2021/05/09 05:24:08;;;;;;;8.57;4.32;;;;;;;;;;5030933;28;20614;-68
2021/05/09 05:26:33;;;;;;;6.78;3.53;;;;;;;;;;5035701;28;20195;-68
2021/05/09 05:28:58;;;;;;;6.13;3.47;;;;;;;;;;5031704;28;20265;-69
2021/05/09 05:31:25;;;;;;;5.75;3.40;;;;;;;;;;5039731;28;20221;-69
2021/05/09 05:33:50;;;;;;;4.80;3.25;;;;;;;;;;5029924;28;20189;-69
2021/05/09 05:36:15;;;;;;;5.32;3.45;;;;;;;;;;5041934;28;20228;-68
2021/05/09 05:38:41;;;;;;;5.35;3.28;;;;;;;;;;5041563;28;20189;-69
2021/05/09 05:41:06;;;;;;;6.82;3.58;;;;;;;;;;5030334;28;20244;-69
2021/05/09 05:43:32;;;;;;;6.70;3.00;;;;;;;;;;5044069;28;21106;-69
2021/05/09 05:45:59;;;;;;;4.22;2.70;;;;;;;;;;5040548;28;20204;-68
2021/05/09 05:48:25;;;;;;;5.43;2.80;;;;;;;;;;5041880;28;20224;-68
2021/05/09 05:50:52;;;;;;;5.07;3.38;;;;;;;;;;5038209;28;20200;-69
2021/05/09 05:53:18;;;;;;;8.48;3.33;;;;;;;;;;5046463;28;20228;-69
2021/05/09 05:55:45;;;;;;;4.53;2.72;;;;;;;;;;5043922;28;20212;-69
2021/05/09 05:58:10;;;;;;;5.57;2.60;;;;;;;;;;5042962;28;20264;-69
2021/05/09 06:00:35;;;;;;;7.97;2.55;;;;;;;;;;5040677;28;20277;-68
2021/05/09 06:03:01;;;;;;;5.35;3.22;;;;;;;;;;5042759;28;20217;-68
2021/05/09 06:05:26;;;;;;;4.57;2.65;;;;;;;;;;5035703;28;20209;-69
2021/05/09 06:07:52;;;;;;;5.88;2.45;;;;;;;;;;5046025;28;20193;-68
2021/05/09 06:10:17;;;;;;;5.35;2.80;;;;;;;;;;5039209;28;20186;-68
2021/05/09 06:12:42;;;;;;;5.35;2.65;;;;;;;;;;5039747;28;20323;-69
2021/05/09 06:15:08;;;;;;;5.03;2.33;;;;;;;;;;5043554;28;20236;-69
2021/05/09 06:17:34;;;;;;;4.25;2.53;;;;;;;;;;5034086;28;20177;-69
2021/05/09 06:19:59;;;;;;;4.53;2.30;;;;;;;;;;5044251;28;20640;-67
2021/05/09 06:22:26;;;;;;;3.90;2.17;;;;;;;;;;5035807;28;20639;-67
2021/05/09 06:24:52;;;;;;;3.72;2.35;;;;;;;;;;5043079;28;20169;-68
2021/05/09 06:27:17;;;;;;;3.60;2.42;;;;;;;;;;5038539;28;20327;-68
2021/05/09 06:29:43;;;;;;;6.80;2.30;;;;;;;;;;5039439;28;20186;-68
2021/05/09 06:32:08;;;;;;;4.60;2.40;;;;;;;;;;5033224;28;20267;-68
2021/05/09 06:34:34;;;;;;;4.05;2.13;;;;;;;;;;5038699;28;20709;-68
2021/05/09 06:36:59;;;;;;;3.38;2.30;;;;;;;;;;5043429;28;20276;-68
2021/05/09 06:39:29;;;;;;;5.97;2.45;;;;;;;;;;5042607;28;20204;-68
2021/05/09 06:41:58;;;;;;;4.47;2.40;;;;;;;;;;5045683;28;20734;-68
2021/05/09 06:44:29;;;;;;;4.95;2.28;;;;;;;;;;5036944;28;20729;-68
2021/05/09 06:46:54;;;;;;;3.30;2.20;;;;;;;;;;5042416;28;20186;-68
2021/05/09 06:49:19;;;;;;;3.72;2.10;;;;;;;;;;5031865;28;20626;-68
2021/05/09 06:51:45;;;;;;;4.25;1.95;;;;;;;;;;5049128;28;20184;-69
2021/05/09 06:54:10;;;;;;;3.80;2.35;;;;;;;;;;5028679;28;20186;-67
2021/05/09 06:56:36;;;;;;;4.60;2.22;;;;;;;;;;5046607;28;20188;-68
2021/05/09 06:59:03;;;;;;;5.18;2.42;;;;;;;;;;5032863;28;20197;-67
2021/05/09 07:01:28;;;;;;;4.45;2.15;;;;;;;;;;5045959;28;20290;-68
2021/05/09 07:03:54;;;;;;;2.67;1.92;;;;;;;;;;5035931;28;20868;-69
2021/05/09 07:06:20;;;;;;;3.78;1.83;;;;;;;;;;5042881;28;20286;-68
2021/05/09 07:08:45;;;;;;;4.70;1.90;;;;;;;;;;5034066;28;20268;-69
2021/05/09 07:11:10;;;;;;;3.20;2.03;;;;;;;;;;5038256;28;20276;-69
2021/05/09 07:13:36;;;;;;;2.88;2.00;;;;;;;;;;5037300;28;20776;-69
2021/05/09 07:16:01;;;;;;;3.05;1.80;;;;;;;;;;5041735;28;20232;-68
2021/05/09 07:18:28;;;;;;;3.03;1.77;;;;;;;;;;5044696;28;20194;-69
2021/05/09 07:20:59;;;;;;;3.33;1.90;;;;;;;;;;5042206;28;20194;-69
2021/05/09 07:23:26;;;;;;;4.25;1.50;;;;;;;;;;5040082;28;20195;-69
2021/05/09 07:25:52;;;;;;;2.35;1.60;;;;;;;;;;5036997;28;20197;-69
2021/05/09 07:28:19;;;;;;;5.32;1.85;;;;;;;;;;5043905;28;20636;-69
2021/05/09 07:30:45;;;;;;;1.88;1.63;;;;;;;;;;5038152;28;20185;-69
2021/05/09 07:33:14;;;;;;;3.67;1.30;;;;;;;;;;5040659;28;20178;-69
2021/05/09 07:35:41;;;;;;;2.72;1.30;;;;;;;;;;5033766;28;20241;-69
2021/05/09 07:38:08;;;;;;;3.53;1.67;;;;;;;;;;5042639;28;20269;-69
2021/05/09 07:40:34;;;;;;;5.20;1.85;;;;;;;;;;5038338;28;20291;-69
2021/05/09 07:43:00;;;;;;;3.08;1.60;;;;;;;;;;5046365;28;20224;-68
2021/05/09 07:45:25;;;;;;;2.97;1.67;;;;;;;;;;5030161;28;20184;-68
2021/05/09 07:47:51;;;;;;;3.55;1.40;;;;;;;;;;5044302;28;20193;-69
2021/05/09 07:50:20;;;;;;;2.47;1.35;;;;;;;;;;5043532;28;20192;-69
2021/05/09 07:52:47;;;;;;;4.07;1.70;;;;;;;;;;5038000;28;20292;-68
2021/05/09 07:55:14;;;;;;;3.25;1.70;;;;;;;;;;5034470;28;20744;-69
2021/05/09 07:57:40;;;;;;;3.35;1.30;;;;;;;;;;5033396;28;20595;-69
2021/05/09 08:00:09;;;;;;;1.60;1.25;;;;;;;;;;5040349;28;20254;-69
2021/05/09 08:02:34;;;;;;;3.70;1.50;;;;;;;;;;5033291;28;20225;-69
2021/05/09 08:04:59;;;;;;;2.92;1.40;;;;;;;;;;5045156;28;20708;-69
2021/05/09 08:07:25;;;;;;;2.08;1.40;;;;;;;;;;5027672;28;20346;-69
2021/05/09 08:09:50;;;;;;;2.38;1.30;;;;;;;;;;5039810;28;20178;-68
2021/05/09 08:12:15;;;;;;;2.08;1.05;;;;;;;;;;5034018;28;20268;-69
2021/05/09 08:14:41;;;;;;;2.58;1.30;;;;;;;;;;5040832;28;20226;-69
2021/05/09 08:17:06;;;;;;;2.55;1.10;;;;;;;;;;5031168;28;20216;-69
2021/05/09 08:19:32;;;;;;;3.50;1.33;;;;;;;;;;5038726;28;20560;-69
2021/05/09 08:21:57;;;;;;;1.83;1.08;;;;;;;;;;5034333;28;20213;-69
2021/05/09 08:24:22;;;;;;;2.22;1.20;;;;;;;;;;5041631;28;20177;-69
2021/05/09 08:26:47;;;;;;;2.17;1.20;;;;;;;;;;5042929;28;20177;-69
2021/05/09 08:29:13;;;;;;;1.88;1.30;;;;;;;;;;5030894;28;20535;-69
2021/05/09 08:31:39;;;;;;;1.67;1.10;;;;;;;;;;5041617;28;20667;-69
2021/05/09 08:34:05;;;;;;;2.58;1.30;;;;;;;;;;5030298;28;20235;-69
2021/05/09 08:36:30;;;;;;;3.97;1.10;;;;;;;;;;5042880;28;20245;-69
2021/05/09 08:38:55;;;;;;;2.08;1.05;;;;;;;;;;5030846;28;20294;-68
2021/05/09 08:41:22;;;;;;;3.40;1.10;;;;;;;;;;5040705;28;20193;-69
2021/05/09 08:43:47;;;;;;;1.77;1.17;;;;;;;;;;5032507;28;20194;-69
2021/05/09 08:46:13;;;;;;;2.08;1.10;;;;;;;;;;5041358;28;20182;-69
2021/05/09 08:48:41;;;;;;;1.23;0.90;;;;;;;;;;5031855;28;20649;-68
2021/05/09 08:51:06;;;;;;;2.38;1.10;;;;;;;;;;5039391;28;20189;-69
2021/05/09 08:53:32;;;;;;;2.28;1.00;;;;;;;;;;5036437;28;20685;-69
2021/05/09 08:55:58;;;;;;;3.17;1.10;;;;;;;;;;5045410;28;20210;-69
2021/05/09 08:58:23;;;;;;;2.58;1.33;;;;;;;;;;5037653;28;20411;-69
2021/05/09 09:00:48;;;;;;;3.13;1.20;;;;;;;;;;5036068;28;20209;-69
2021/05/09 09:03:14;;;;;;;2.70;1.17;;;;;;;;;;5037081;28;20210;-69
2021/05/09 09:05:44;;;;;;;3.05;1.05;;;;;;;;;;5034770;28;20185;-69
2021/05/09 09:08:12;;;;;;;2.13;1.10;;;;;;;;;;5035035;28;20173;-69
2021/05/09 09:10:48;;;;;;;2.60;1.10;;;;;;;;;;5027711;28;20200;-69
2021/05/09 09:13:27;;;;;;;1.75;0.88;;;;;;;;;;5038522;28;20234;-69
2021/05/09 09:16:01;;;;;;;4.63;1.27;;;;;;;;;;5035250;28;20217;-69
2021/05/09 09:18:47;;;;;;;1.40;0.90;;;;;;;;;;5036889;28;20189;-69
2021/05/09 09:21:18;;;;;;;2.20;1.02;;;;;;;;;;5027869;28;20628;-69
2021/05/09 09:23:45;;;;;;;1.88;1.00;;;;;;;;;;5039197;28;20188;-69
2021/05/09 09:26:34;;;;;;;1.98;1.00;;;;;;;;;;5036847;28;20236;-69
2021/05/09 09:29:17;;;;;;;2.53;0.93;;;;;;;;;;5038155;28;20638;-69
2021/05/09 09:31:43;;;;;;;2.78;1.00;;;;;;;;;;5029879;28;20523;-69
2021/05/09 09:34:09;;;;;;;1.27;0.90;;;;;;;;;;5038564;28;20268;-69
2021/05/09 09:36:35;;;;;;;1.75;1.10;;;;;;;;;;5033754;28;20204;-69
2021/05/09 09:39:01;;;;;;;4.28;1.20;;;;;;;;;;5033335;28;20178;-68
2021/05/09 09:41:26;;;;;;;2.35;1.00;;;;;;;;;;5030245;28;20697;-70
2021/05/09 09:44:08;;;;;;;1.50;1.20;;;;;;;;;;5037917;28;20189;-68
2021/05/09 09:46:42;;;;;;;2.28;1.00;;;;;;;;;;5032538;28;20259;-69
2021/05/09 09:49:27;;;;;;;2.33;1.00;;;;;;;;;;5036447;28;20227;-69
2021/05/09 09:51:55;;;;;;;1.13;0.88;;;;;;;;;;5030607;28;20543;-69
2021/05/09 09:54:48;;;;;;;2.40;1.20;;;;;;;;;;5042205;28;20177;-69
2021/05/09 09:57:22;;;;;;;2.60;1.00;;;;;;;;;;5032832;28;20546;-69
2021/05/09 10:00:07;;;;;;;2.08;0.90;;;;;;;;;;5030977;28;20238;-70
2021/05/09 10:02:32;;;;;;;2.00;0.98;;;;;;;;;;5035673;28;20632;-69
2021/05/09 10:04:59;;;;;;;1.10;1.00;;;;;;;;;;5040862;28;20221;-68
2021/05/09 10:07:26;;;;;;;2.38;1.10;;;;;;;;;;5030939;28;20186;-69
2021/05/09 10:09:51;;;;;;;2.60;0.90;;;;;;;;;;5035522;28;20264;-70
2021/05/09 10:12:17;;;;;;;4.00;1.20;;;;;;;;;;5037431;28;20194;-70
2021/05/09 10:14:42;;;;;;;4.30;1.15;;;;;;;;;;5031470;28;20193;-69
2021/05/09 10:17:08;;;;;;;6.22;1.35;;;;;;;;;;5038788;28;20198;-68
2021/05/09 10:19:34;;;;;;;1.65;1.10;;;;;;;;;;5031696;28;20197;-69
2021/05/09 10:22:25;;;;;;;3.60;1.30;;;;;;;;;;5043314;28;20235;-69
2021/05/09 10:24:50;;;;;;;2.25;1.15;;;;;;;;;;5038435;28;20351;-69
2021/05/09 10:27:16;;;;;;;1.80;1.17;;;;;;;;;;5043063;28;20264;-69
2021/05/09 10:29:41;;;;;;;2.75;1.20;;;;;;;;;;5034691;28;20200;-69
2021/05/09 10:32:19;;;;;;;1.30;0.98;;;;;;;;;;5039905;28;20182;-69
2021/05/09 10:34:57;;;;;;;4.55;1.40;;;;;;;;;;5028829;28;20299;-68
2021/05/09 10:37:42;;;;;;;3.10;1.00;;;;;;;;;;5044764;28;20510;-69
2021/05/09 10:40:24;;;;;;;1.60;1.00;;;;;;;;;;5034390;28;20529;-69
2021/05/09 10:43:05;;;;;;;3.40;1.27;;;;;;;;;;5037276;28;20229;-68
2021/05/09 10:45:33;;;;;;;1.50;0.93;;;;;;;;;;5033102;28;20217;-69
2021/05/09 10:51:06;;;;;;;3.00;1.30;;;;;;;;;;5034238;28;20201;-69
2021/05/09 10:53:35;;;;;;;1.70;1.20;;;;;;;;;;5045467;28;20177;-69
2021/05/09 10:56:08;;;;;;;2.63;1.13;;;;;;;;;;5034175;28;20190;-69
2021/05/09 10:58:51;;;;;;;1.27;1.02;;;;;;;;;;5040398;28;20647;-70
2021/05/09 11:01:17;;;;;;;1.35;1.17;;;;;;;;;;5037123;28;20178;-69
2021/05/09 11:03:42;;;;;;;2.75;1.30;;;;;;;;;;5041317;28;20189;-70
2021/05/09 11:06:10;;;;;;;3.75;1.10;;;;;;;;;;5038585;28;20538;-69
2021/05/09 11:08:41;;;;;;;4.78;1.17;;;;;;;;;;5039587;28;20637;-69
2021/05/09 11:11:07;;;;;;;1.90;1.20;;;;;;;;;;5033848;28;20208;-70
2021/05/09 11:13:32;;;;;;;2.00;1.35;;;;;;;;;;5039408;28;20544;-70
2021/05/09 11:16:16;;;;;;;2.75;1.52;;;;;;;;;;5031507;28;20182;-68
2021/05/09 11:18:41;;;;;;;1.80;1.48;;;;;;;;;;5040517;28;20597;-69
2021/05/09 11:21:07;;;;;;;2.10;1.30;;;;;;;;;;5036184;28;20197;-69
2021/05/09 11:23:41;;;;;;;2.10;1.50;;;;;;;;;;5041055;28;20178;-69
2021/05/09 11:26:27;;;;;;;2.33;1.38;;;;;;;;;;5042533;28;20197;-69
2021/05/09 11:29:09;;;;;;;1.80;1.50;;;;;;;;;;5045105;28;20646;-70
2021/05/09 11:31:44;;;;;;;2.92;1.40;;;;;;;;;;5036649;28;20286;-70
2021/05/09 11:34:11;;;;;;;3.50;1.45;;;;;;;;;;5042091;28;20251;-70
2021/05/09 11:36:39;;;;;;;3.13;1.65;;;;;;;;;;5040182;28;20198;-70
2021/05/09 11:39:11;;;;;;;3.45;1.63;;;;;;;;;;5036414;28;20191;-69
2021/05/09 11:41:58;;;;;;;2.83;1.40;;;;;;;;;;5036569;28;20277;-69
2021/05/09 11:44:26;;;;;;;3.33;1.55;;;;;;;;;;5036441;28;20285;-69
2021/05/09 11:46:56;;;;;;;1.52;1.42;;;;;;;;;;5043963;28;20575;-69
2021/05/09 11:49:26;;;;;;;2.60;1.60;;;;;;;;;;5034348;28;20200;-69
2021/05/09 11:51:54;;;;;;;4.22;1.55;;;;;;;;;;5042574;28;20229;-69
2021/05/09 11:54:21;;;;;;;4.65;1.80;;;;;;;;;;5039397;28;20197;-70
2021/05/09 11:57:04;;;;;;;3.88;1.55;;;;;;;;;;5041581;28;20185;-70
2021/05/09 11:59:39;;;;;;;4.30;1.85;;;;;;;;;;5031149;28;20182;-70
2021/05/09 12:02:21;;;;;;;2.50;1.63;;;;;;;;;;5035263;28;20201;-69
2021/05/09 12:05:11;;;;;;;1.88;1.48;;;;;;;;;;5034428;28;20202;-70
2021/05/09 12:07:51;;;;;;;1.60;1.45;;;;;;;;;;5038248;28;20189;-70
2021/05/09 12:10:26;;;;;;;2.92;1.70;;;;;;;;;;5029354;28;20961;-70
2021/05/09 12:13:10;;;;;;;4.47;2.00;;;;;;;;;;5042975;28;20192;-70
2021/05/09 12:15:43;;;;;;;3.88;1.90;;;;;;;;;;5032103;28;20194;-69
2021/05/09 12:18:09;;;;;;;3.67;1.88;;;;;;;;;;5041294;28;20629;-69
2021/05/09 12:20:36;;;;;;;3.45;1.90;;;;;;;;;;5032430;28;20190;-70
2021/05/09 12:23:07;;;;;;;5.38;2.00;;;;;;;;;;5038358;28;20225;-70
2021/05/09 12:25:42;;;;;;;4.28;2.22;;;;;;;;;;5033732;28;20254;-69
2021/05/09 12:28:19;;;;;;;4.22;2.00;;;;;;;;;;5043396;28;20176;-70
2021/05/09 12:30:49;;;;;;;3.38;2.25;;;;;;;;;;5032291;28;20242;-69
2021/05/09 12:33:33;;;;;;;4.18;2.67;;;;;;;;;;5044480;28;20188;-69
2021/05/09 12:36:09;;;;;;;4.30;1.85;;;;;;;;;;5031486;28;20185;-69
2021/05/09 12:38:34;;;;;;;5.65;2.13;;;;;;;;;;5038919;28;20219;-69
2021/05/09 12:41:14;;;;;;;3.38;2.05;;;;;;;;;;5033444;28;20240;-69
2021/05/09 12:43:41;;;;;;;6.20;2.30;;;;;;;;;;5032350;28;20228;-68
2021/05/09 12:46:06;;;;;;;3.63;1.92;;;;;;;;;;5030749;28;20408;-69
2021/05/09 12:48:32;;;;;;;3.60;1.90;;;;;;;;;;5043906;28;20189;-69
2021/05/09 12:51:06;;;;;;;3.95;2.67;;;;;;;;;;5033341;28;20193;-69
2021/05/09 12:53:49;;;;;;;4.60;2.33;;;;;;;;;;5041023;28;20583;-69
2021/05/09 12:56:21;;;;;;;2.65;2.20;;;;;;;;;;5030886;28;20189;-69
2021/05/09 12:59:08;;;;;;;5.20;2.00;;;;;;;;;;5031656;28;20270;-70
2021/05/09 13:01:40;;;;;;;6.30;2.25;;;;;;;;;;5031903;28;20201;-69
2021/05/09 13:04:25;;;;;;;3.40;1.77;;;;;;;;;;5044504;28;20197;-69
2021/05/09 13:06:50;;;;;;;5.90;2.80;;;;;;;;;;5033448;28;20199;-69
2021/05/09 13:09:15;;;;;;;6.10;2.65;;;;;;;;;;5039084;28;20197;-69
2021/05/09 13:11:41;;;;;;;5.82;2.30;;;;;;;;;;5033782;28;20188;-69
2021/05/09 13:14:06;;;;;;;4.63;2.10;;;;;;;;;;5040225;28;20208;-70
2021/05/09 13:16:31;;;;;;;3.20;2.10;;;;;;;;;;5042655;28;20171;-69
2021/05/09 13:18:57;;;;;;;4.47;2.03;;;;;;;;;;5033796;28;20272;-70
2021/05/09 13:21:22;;;;;;;2.70;1.90;;;;;;;;;;5038257;28;20212;-70
2021/05/09 13:23:47;;;;;;;3.50;1.90;;;;;;;;;;5032078;28;20213;-69
2021/05/09 13:26:13;;;;;;;3.80;2.10;;;;;;;;;;5039988;28;20240;-69
2021/05/09 13:28:39;;;;;;;2.35;1.55;;;;;;;;;;5035149;28;20277;-69
2021/05/09 13:31:04;;;;;;;5.70;2.10;;;;;;;;;;5035899;28;20221;-68
2021/05/09 13:33:30;;;;;;;3.28;1.90;;;;;;;;;;5030738;28;20200;-69
2021/05/09 13:35:55;;;;;;;4.97;2.30;;;;;;;;;;5037178;28;20212;-69
2021/05/09 13:38:20;;;;;;;3.13;2.30;;;;;;;;;;5025366;28;20261;-70
2021/05/09 13:40:46;;;;;;;4.90;2.22;;;;;;;;;;5040083;28;20193;-70
2021/05/09 13:43:11;;;;;;;7.47;2.03;;;;;;;;;;5038730;28;20233;-70
2021/05/09 13:45:36;;;;;;;3.15;2.05;;;;;;;;;;5031021;28;20209;-70
2021/05/09 13:48:02;;;;;;;2.75;1.88;;;;;;;;;;5036283;28;20212;-69
2021/05/09 13:50:27;;;;;;;4.85;1.80;;;;;;;;;;5030145;28;20186;-69
2021/05/09 13:52:52;;;;;;;5.05;1.95;;;;;;;;;;5042814;28;20278;-70
2021/05/09 13:55:18;;;;;;;5.93;2.03;;;;;;;;;;5030454;28;20234;-70
2021/05/09 13:57:43;;;;;;;4.90;2.00;;;;;;;;;;5048888;28;20173;-70
2021/05/09 14:00:09;;;;;;;3.60;2.53;;;;;;;;;;5032359;28;20217;-70
2021/05/09 14:02:35;;;;;;;3.33;1.88;;;;;;;;;;5036012;28;20245;-69
2021/05/09 14:05:00;;;;;;;5.45;2.03;;;;;;;;;;5035092;28;20810;-69
2021/05/09 14:07:26;;;;;;;3.40;1.90;;;;;;;;;;5037560;28;20248;-69
2021/05/09 14:09:51;;;;;;;4.10;1.90;;;;;;;;;;5034908;28;20238;-69
2021/05/09 14:12:18;;;;;;;3.10;2.15;;;;;;;;;;5037282;28;20239;-69
2021/05/09 14:14:43;;;;;;;2.83;1.80;;;;;;;;;;5039883;28;20222;-69
2021/05/09 14:17:09;;;;;;;4.13;1.85;;;;;;;;;;5032307;28;20240;-69
2021/05/09 14:19:34;;;;;;;5.55;2.42;;;;;;;;;;5045895;28;20247;-69
2021/05/09 14:22:00;;;;;;;5.18;2.10;;;;;;;;;;5029751;28;20189;-69
2021/05/09 14:24:26;;;;;;;4.22;2.08;;;;;;;;;;5044406;28;20281;-69
2021/05/09 14:26:52;;;;;;;8.43;2.08;;;;;;;;;;5036528;28;20366;-69
2021/05/09 14:29:17;;;;;;;3.88;2.30;;;;;;;;;;5043834;28;20662;-69
2021/05/09 14:31:42;;;;;;;4.82;2.50;;;;;;;;;;5036931;28;20189;-70
2021/05/09 14:34:08;;;;;;;3.70;2.10;;;;;;;;;;5047445;28;20209;-70
2021/05/09 14:36:33;;;;;;;2.45;2.22;;;;;;;;;;5035896;28;20267;-70
2021/05/09 14:38:58;;;;;;;2.78;1.90;;;;;;;;;;5039597;28;20178;-70
2021/05/09 14:41:24;;;;;;;4.15;2.22;;;;;;;;;;5032967;28;20181;-69
2021/05/09 14:43:49;;;;;;;6.38;2.50;;;;;;;;;;5048705;28;20185;-70
2021/05/09 14:46:15;;;;;;;5.53;2.58;;;;;;;;;;5037442;28;20214;-69